West Olive, Michigan
Current Conditions -  °F | °C
As of 11:53 AM on Monday 22 Dec 2014 (Local Time) from KBIV Reporting Station
Overcast Overcast  
Wind Chill: -3°   Ceiling: 10000
Heat Index:   Visibility: 7mi
Dew Point: -3°   Wind: 14mph
Humidity: 70%   Direction: 110°ESE
Pressure: 29.94"   Gusts: NA
Location:  42.92°N, 86.15°W
Report Text: KBIV 221653Z AUTO 11012KT 7SM SCT065 OVC100 02/M03 A2994 RMK AO2 SLP145 T00221028
Loading
Personal Weather Stations






























Interactive Weather Map New forecast layout! Learn more

10-Day Weather Forecast

Advertisements
Track Severe Weather on mobile